Time;durP1;ratioP1;P1;durP2;ratioP2;P2;SDS_P1;SDS_P2;PMS_P1;PMS_P2;Temp;Humidity;BMP_temperature;BMP_pressure;BME280_temperature;BME280_humidity;BME280_pressure;Samples;Min_cycle;Max_cycle;Signal;HPM_P1;HPM_P2
2022/10/15 08:34:58;;;;;;;;;0.00;0.00;;;;;20.82;51.92;100232.72;5016658;28;45162;-60
2022/10/15 08:37:24;;;;;;;;;0.00;0.00;;;;;20.82;51.86;100240.63;5017933;28;45498;-59
2022/10/15 08:39:49;;;;;;;;;0.25;0.25;;;;;20.83;51.90;100247.59;5034094;28;46103;-60
2022/10/15 08:42:38;;;;;;;;;0.00;0.00;;;;;20.83;52.11;100247.59;5027120;28;45408;-59
2022/10/15 08:45:12;;;;;;;;;0.00;0.00;;;;;20.84;52.17;100257.16;5017055;28;45376;-60
2022/10/15 08:47:42;;;;;;;;;0.00;0.00;;;;;20.82;52.05;100259.91;5018157;28;45502;-60
2022/10/15 08:50:45;;;;;;;;;0.00;0.00;;;;;20.85;51.88;100261.50;5016861;28;46374;-61
2022/10/15 08:53:19;;;;;;;;;0.00;0.00;;;;;20.84;51.98;100262.44;5016579;28;45488;-61
2022/10/15 08:55:48;;;;;;;;;0.00;0.00;;;;;20.85;52.23;100266.75;5017710;28;45395;-60
2022/10/15 08:58:24;;;;;;;;;0.00;0.00;;;;;20.87;52.17;100274.56;5031175;28;45581;-62
2022/10/15 09:00:53;;;;;;;;;1.00;0.00;;;;;20.86;51.88;100273.72;5037914;28;46334;-63
2022/10/15 09:03:47;;;;;;;;;0.00;0.00;;;;;20.87;52.03;100270.16;5026230;28;45747;-65
2022/10/15 09:06:33;;;;;;;;;0.00;0.00;;;;;20.89;51.91;100272.66;5019058;28;45396;-65
2022/10/15 09:09:11;;;;;;;;;0.00;0.00;;;;;20.89;51.95;100272.66;5017232;28;45576;-65
2022/10/15 09:12:16;;;;;;;;;0.00;0.00;;;;;20.89;52.12;100276.13;5017339;28;45278;-61
2022/10/15 09:14:45;;;;;;;;;0.00;0.00;;;;;20.88;51.96;100282.38;5017510;28;45446;-64
2022/10/15 09:17:21;;;;;;;;;0.00;0.00;;;;;20.89;51.98;100277.94;5029106;28;45311;-60
2022/10/15 09:19:51;;;;;;;;;0.00;0.00;;;;;20.89;51.87;100278.78;5042619;28;44675;-64
2022/10/15 09:22:18;;;;;;;;;0.00;0.00;;;;;20.91;52.17;100282.16;5025104;28;45700;-64
2022/10/15 09:24:43;;;;;;;;;0.00;0.00;;;;;20.93;52.03;100290.81;5019741;28;45290;-62
2022/10/15 09:27:17;;;;;;;;;0.00;0.00;;;;;20.93;51.97;100292.59;5016618;28;46021;-60
2022/10/15 09:30:09;;;;;;;;;0.00;0.00;;;;;20.94;51.82;100292.50;5019196;28;45338;-61
2022/10/15 09:32:45;;;;;;;;;1.00;0.00;;;;;20.92;51.70;100302.28;5032326;28;45231;-61
2022/10/15 09:35:23;;;;;;;;;0.00;0.00;;;;;20.93;51.66;100301.34;5033126;28;45343;-61
2022/10/15 09:38:15;;;;;;;;;1.00;0.00;;;;;20.94;51.60;100303.03;5019546;28;45331;-63
2022/10/15 09:40:51;;;;;;;;;0.50;0.00;;;;;20.95;52.04;100294.19;5016552;28;45339;-60
2022/10/15 09:43:27;;;;;;;;;0.00;0.00;;;;;20.94;51.57;100299.56;5015827;28;46462;-60
2022/10/15 09:45:53;;;;;;;;;0.00;0.00;;;;;20.96;51.83;100302.91;5016081;28;45319;-61
2022/10/15 09:48:20;;;;;;;;;0.00;0.00;;;;;20.97;51.76;100309.88;5016127;28;45335;-61
2022/10/15 09:50:57;;;;;;;;;0.00;0.00;;;;;20.96;51.80;100310.81;5026539;28;45506;-61
2022/10/15 09:53:44;;;;;;;;;0.00;0.00;;;;;20.99;52.12;100310.63;5029680;28;46118;-60
2022/10/15 09:56:21;;;;;;;;;1.00;0.00;;;;;20.98;52.15;100312.44;5016126;28;45274;-61
2022/10/15 09:58:56;;;;;;;;;0.00;0.00;;;;;21.00;51.80;100320.22;5015065;28;45261;-60
2022/10/15 10:01:27;;;;;;;;;0.00;0.00;;;;;20.97;51.98;100323.91;5015931;28;45336;-61
2022/10/15 10:04:16;;;;;;;;;0.00;0.00;;;;;20.99;51.84;100343.09;5015588;28;46267;-60
2022/10/15 10:06:48;;;;;;;;;0.25;0.00;;;;;20.99;52.05;100353.66;5015815;28;45194;-63
2022/10/15 10:09:20;;;;;;;;;0.00;0.00;;;;;20.98;52.12;100351.09;5014320;28;45566;-61
2022/10/15 10:11:52;;;;;;;;;0.00;0.00;;;;;20.99;51.89;100358.06;5016218;28;45464;-61
2022/10/15 10:14:29;;;;;;;;;0.00;0.00;;;;;20.98;52.02;100351.97;5015436;28;45311;-59
2022/10/15 10:17:15;;;;;;;;;0.00;0.00;;;;;20.99;52.09;100347.53;5015390;28;45789;-60
2022/10/15 10:19:41;;;;;;;;;0.00;0.00;;;;;20.99;51.98;100358.91;5016129;28;45338;-59
2022/10/15 10:22:19;;;;;;;;;0.00;0.00;;;;;20.98;51.76;100356.38;5014728;28;45668;-59
2022/10/15 10:24:47;;;;;;;;;0.00;0.00;;;;;21.01;51.93;100366.72;5015648;28;45493;-61
2022/10/15 10:27:30;;;;;;;;;0.00;0.00;;;;;21.01;52.40;100357.00;5014343;28;45244;-60
2022/10/15 10:30:00;;;;;;;;;0.00;0.00;;;;;21.03;52.27;100363.97;5017446;28;45373;-62
2022/10/15 10:32:30;;;;;;;;;0.00;0.00;;;;;21.04;52.19;100360.38;5037752;28;45554;-64
2022/10/15 10:34:56;;;;;;;;;0.00;0.00;;;;;21.03;52.16;100363.97;5032209;28;47126;-61
2022/10/15 10:37:21;;;;;;;;;0.00;0.00;;;;;21.04;52.28;100363.03;5016318;28;45888;-61
2022/10/15 10:39:59;;;;;;;;;0.00;0.00;;;;;21.03;52.22;100364.81;5017646;28;45792;-61
2022/10/15 10:42:33;;;;;;;;;0.00;0.00;;;;;21.04;52.48;100360.38;5022055;28;45446;-62
2022/10/15 10:45:17;;;;;;;;;0.00;0.00;;;;;21.05;52.18;100368.22;5028037;28;46207;-61
2022/10/15 10:47:42;;;;;;;;;0.00;0.00;;;;;21.06;52.07;100369.03;5020517;28;45371;-61
2022/10/15 10:50:30;;;;;;;;;0.00;0.00;;;;;21.05;52.14;100365.59;5020229;28;45288;-64
2022/10/15 10:52:56;;;;;;;;;0.00;0.00;;;;;21.06;52.28;100369.03;5042426;28;45246;-65
2022/10/15 10:55:30;;;;;;;;;0.00;0.00;;;;;21.04;52.10;100369.16;5041235;28;46852;-62
2022/10/15 10:57:58;;;;;;;;;1.00;0.00;;;;;21.05;52.50;100372.63;5041365;28;45126;-60
2022/10/15 11:00:41;;;;;;;;;0.00;0.00;;;;;21.04;52.21;100370.94;5030754;28;45468;-59
2022/10/15 11:03:32;;;;;;;;;0.00;0.00;;;;;21.05;52.32;100388.44;5021384;28;45412;-59
2022/10/15 11:06:30;;;;;;;;;0.00;0.00;;;;;21.04;52.67;100394.63;5028035;28;45260;-60
2022/10/15 11:09:02;;;;;;;;;0.00;0.00;;;;;21.05;52.53;100396.34;5036197;28;45459;-60
2022/10/15 11:12:15;;;;;;;;;0.00;0.00;;;;;21.04;52.44;100406.03;5027007;28;45240;-60
2022/10/15 11:15:24;;;;;;;;;0.00;0.00;;;;;21.04;52.49;100406.03;5011889;28;45345;-61
2022/10/15 11:18:23;;;;;;;;;0.00;0.00;;;;;21.04;52.23;100387.59;5027562;28;45475;-63
2022/10/15 11:20:54;;;;;;;;;0.00;0.00;;;;;21.04;52.08;100397.28;5019782;28;45716;-66
2022/10/15 11:23:40;;;;;;;;;1.75;0.00;;;;;21.05;52.23;100410.38;5021789;28;45493;-64
2022/10/15 11:26:18;;;;;;;;;0.00;0.00;;;;;21.04;52.10;100415.72;5020098;28;45545;-64
2022/10/15 11:28:58;;;;;;;;;1.00;1.00;;;;;21.06;52.20;100408.56;5018723;28;45437;-63
2022/10/15 11:31:42;;;;;;;;;0.00;0.00;;;;;21.05;52.28;100407.72;5017940;28;45723;-63
2022/10/15 11:34:29;;;;;;;;;0.00;0.00;;;;;21.07;52.02;100411.09;5018287;28;45291;-64
2022/10/15 11:37:20;;;;;;;;;4.00;1.00;;;;;21.09;52.38;100400.47;5018660;28;45313;-61
2022/10/15 11:40:09;;;;;;;;;0.00;0.00;;;;;21.09;52.02;100400.47;5020561;28;45292;-61
2022/10/15 11:42:45;;;;;;;;;1.00;1.00;;;;;21.10;52.07;100391.63;5024897;28;45337;-62
2022/10/15 11:45:22;;;;;;;;;0.25;0.25;;;;;21.11;51.88;100390.69;5035336;28;45284;-62
2022/10/15 11:48:25;;;;;;;;;1.00;1.00;;;;;21.10;52.13;100392.47;5041583;28;44658;-64
2022/10/15 11:51:02;;;;;;;;;2.00;0.75;;;;;21.09;51.97;100395.19;5023756;28;46382;-62
2022/10/15 11:53:51;;;;;;;;;1.50;1.00;;;;;21.10;51.92;100396.91;5039880;28;45109;-63
2022/10/15 11:56:28;;;;;;;;;2.25;1.00;;;;;21.10;52.24;100402.16;5026958;28;45363;-61
2022/10/15 11:59:09;;;;;;;;;4.00;2.00;;;;;21.10;51.97;100402.16;5020186;28;45431;-62
2022/10/15 12:01:47;;;;;;;;;0.75;0.75;;;;;21.09;51.91;100400.47;5021770;28;46166;-61
2022/10/15 12:04:24;;;;;;;;;2.00;1.00;;;;;21.09;52.08;100403.09;5021720;28;45263;-64
2022/10/15 12:06:54;;;;;;;;;2.00;2.00;;;;;21.09;52.08;100418.91;5022439;28;45406;-62
2022/10/15 12:09:27;;;;;;;;;3.00;1.75;;;;;21.09;52.35;100421.56;5020764;28;45546;-61
2022/10/15 12:12:16;;;;;;;;;1.00;1.00;;;;;21.09;52.28;100421.56;5023869;28;47186;-63
2022/10/15 12:15:01;;;;;;;;;1.00;1.00;;;;;21.09;52.21;100427.66;5020541;28;45419;-61
2022/10/15 12:17:40;;;;;;;;;1.75;1.00;;;;;21.07;52.13;100412.91;5026777;28;45416;-61
2022/10/15 12:20:11;;;;;;;;;1.00;1.00;;;;;21.08;52.02;100414.59;5028333;28;45478;-60
2022/10/15 12:22:52;;;;;;;;;1.00;1.00;;;;;21.07;52.10;100416.38;5022473;28;46093;-61
2022/10/15 12:25:47;;;;;;;;;1.00;1.00;;;;;21.08;52.08;100418.06;5030979;28;45389;-61
2022/10/15 12:28:22;;;;;;;;;1.00;1.00;;;;;21.08;52.07;100419.84;5029914;28;46064;-61
2022/10/15 12:30:55;;;;;;;;;1.00;1.00;;;;;21.08;52.11;100418.06;5018058;28;45605;-62
2022/10/15 12:33:53;;;;;;;;;2.00;1.25;;;;;21.06;51.97;100417.31;5016849;28;46309;-61
2022/10/15 12:36:29;;;;;;;;;2.00;1.00;;;;;21.07;51.88;100423.44;5016900;28;45417;-61
2022/10/15 12:39:05;;;;;;;;;2.25;1.00;;;;;21.08;51.76;100411.94;5017273;28;45337;-62
2022/10/15 12:41:41;;;;;;;;;0.00;0.00;;;;;21.08;51.81;100407.50;5017393;28;45435;-61
2022/10/15 12:44:28;;;;;;;;;0.00;0.00;;;;;21.07;51.95;100410.25;5016998;28;46482;-62
2022/10/15 12:46:54;;;;;;;;;1.00;1.00;;;;;21.07;52.08;100405.00;5026053;28;45182;-61
2022/10/15 12:49:26;;;;;;;;;1.50;1.50;;;;;21.06;52.14;100404.13;5024342;28;45395;-60
2022/10/15 12:51:58;;;;;;;;;1.00;1.00;;;;;21.04;52.03;100410.44;5021248;28;45509;-63
2022/10/15 12:54:43;;;;;;;;;2.00;1.00;;;;;21.06;51.56;100411.19;5016778;28;45665;-61
2022/10/15 12:57:29;;;;;;;;;1.00;1.00;;;;;21.05;51.61;100401.59;5016404;28;45329;-60
2022/10/15 12:59:59;;;;;;;;;0.50;0.50;;;;;21.05;51.62;100396.34;5005264;28;45304;-61
2022/10/15 13:02:38;;;;;;;;;1.00;1.00;;;;;21.07;51.82;100394.44;5015751;28;45264;-61
2022/10/15 13:05:06;;;;;;;;;2.00;0.75;;;;;21.06;51.68;100400.66;5016681;28;46101;-60
2022/10/15 13:07:36;;;;;;;;;0.00;0.00;;;;;21.07;51.83;100391.81;5017043;28;45376;-63
2022/10/15 13:10:04;;;;;;;;;3.00;0.75;;;;;21.05;52.01;100383.16;5015551;28;45348;-60
2022/10/15 13:12:30;;;;;;;;;1.00;1.00;;;;;21.06;51.69;100374.31;5018054;28;45335;-61
2022/10/15 13:15:02;;;;;;;;;2.50;0.25;;;;;21.04;51.68;100376.19;5017250;28;45496;-60
2022/10/15 13:17:30;;;;;;;;;1.00;1.00;;;;;21.07;52.07;100386.53;5016555;28;45779;-61
2022/10/15 13:20:04;;;;;;;;;1.00;1.00;;;;;21.06;51.58;100377.78;5016739;28;45285;-61
2022/10/15 13:22:32;;;;;;;;;1.00;1.00;;;;;21.06;51.62;100375.16;5017004;28;45260;-60
2022/10/15 13:24:58;;;;;;;;;2.00;0.50;;;;;21.08;51.68;100372.44;5016315;28;46204;-61
2022/10/15 13:27:33;;;;;;;;;0.75;0.75;;;;;21.07;51.52;100366.28;5016180;28;45773;-60
2022/10/15 13:29:59;;;;;;;;;1.75;0.75;;;;;21.08;51.60;100372.44;5015332;28;45457;-61
2022/10/15 13:32:28;;;;;;;;;3.25;0.50;;;;;21.08;51.89;100375.91;5016941;28;45636;-62
2022/10/15 13:34:56;;;;;;;;;1.00;1.00;;;;;21.08;51.96;100386.44;5017872;28;47506;-60
2022/10/15 13:37:34;;;;;;;;;3.25;1.00;;;;;21.09;51.45;100380.22;5039884;28;45872;-60
2022/10/15 13:40:01;;;;;;;;;0.25;0.25;;;;;21.09;51.47;100369.69;5025451;28;45480;-63
2022/10/15 13:42:26;;;;;;;;;0.50;0.00;;;;;21.08;51.72;100377.69;5022003;28;45402;-60
2022/10/15 13:45:02;;;;;;;;;1.00;1.00;;;;;21.09;51.75;100372.31;5029119;28;45280;-60
2022/10/15 13:47:36;;;;;;;;;1.00;1.00;;;;;21.09;51.57;100379.38;5018782;28;45754;-61
2022/10/15 13:50:19;;;;;;;;;0.50;0.50;;;;;21.09;51.52;100380.22;5017000;28;45509;-62
2022/10/15 13:53:13;;;;;;;;;3.00;0.75;;;;;21.09;51.79;100379.38;5024429;28;45315;-60
2022/10/15 13:55:44;;;;;;;;;3.00;0.00;;;;;21.09;51.39;100380.22;5013605;28;46222;-62
2022/10/15 13:58:17;;;;;;;;;1.00;1.00;;;;;21.08;51.86;100383.81;5015864;28;45245;-63
2022/10/15 14:00:52;;;;;;;;;1.00;1.00;;;;;21.09;51.71;100382.84;5016107;28;45467;-61
2022/10/15 14:03:23;;;;;;;;;0.00;0.00;;;;;21.08;51.49;100377.69;5016315;28;45315;-64
2022/10/15 14:05:51;;;;;;;;;0.75;0.00;;;;;21.09;51.63;100374.13;5014947;28;47482;-62
2022/10/15 14:08:18;;;;;;;;;0.75;0.75;;;;;21.08;51.52;100378.53;5016540;28;45573;-62
2022/10/15 14:10:53;;;;;;;;;1.75;1.00;;;;;21.08;51.68;100378.53;5022871;28;45349;-61
2022/10/15 14:13:18;;;;;;;;;0.00;0.00;;;;;21.08;51.66;100385.59;5019755;28;45523;-60
2022/10/15 14:16:01;;;;;;;;;0.00;0.00;;;;;21.09;51.79;100389.94;5022175;28;46444;-61
2022/10/15 14:18:33;;;;;;;;;0.00;0.00;;;;;21.07;51.34;100387.38;5030229;28;45313;-62
2022/10/15 14:21:00;;;;;;;;;0.00;0.00;;;;;21.08;51.11;100393.50;5039260;28;45440;-64
2022/10/15 14:23:27;;;;;;;;;0.75;0.00;;;;;21.08;51.45;100404.06;5032192;28;45366;-61
2022/10/15 14:26:00;;;;;;;;;1.00;0.75;;;;;21.09;51.18;100396.03;5044947;28;46265;-61
2022/10/15 14:28:29;;;;;;;;;0.50;0.00;;;;;21.09;51.24;100400.47;5039094;28;45812;-60
2022/10/15 14:30:55;;;;;;;;;0.50;0.50;;;;;21.08;51.52;100404.06;5027329;28;45243;-61
2022/10/15 14:33:36;;;;;;;;;0.00;0.00;;;;;21.09;51.68;100400.47;5020308;28;45926;-60
2022/10/15 14:36:04;;;;;;;;;0.50;0.50;;;;;21.08;51.48;100399.59;5037003;28;47784;-61
2022/10/15 14:38:30;;;;;;;;;0.00;0.00;;;;;21.08;51.40;100402.25;5034387;28;45221;-64
2022/10/15 14:40:57;;;;;;;;;0.00;0.00;;;;;21.08;51.04;100402.25;5032740;28;44652;-61
2022/10/15 14:43:32;;;;;;;;;0.00;0.00;;;;;21.07;51.35;100405.00;5023785;28;45220;-64
2022/10/15 14:45:59;;;;;;;;;0.00;0.00;;;;;21.09;51.08;100413.66;5024394;28;46155;-60
2022/10/15 14:48:37;;;;;;;;;0.00;0.00;;;;;21.07;51.41;100413.72;5020688;28;45861;-61
2022/10/15 14:51:05;;;;;;;;;1.00;0.00;;;;;21.09;51.30;100416.28;5018875;28;45433;-62
2022/10/15 14:53:37;;;;;;;;;2.75;0.00;;;;;21.10;51.12;100415.34;5019345;28;45239;-61
2022/10/15 14:56:18;;;;;;;;;1.00;0.00;;;;;21.07;51.27;100411.09;5017127;28;46167;-60
2022/10/15 14:58:57;;;;;;;;;0.00;0.00;;;;;21.09;51.40;100421.56;5018917;28;45378;-61
2022/10/15 15:01:22;;;;;;;;;0.00;0.00;;;;;21.08;51.27;100425.13;5019131;28;45405;-61
2022/10/15 15:03:50;;;;;;;;;0.00;0.00;;;;;21.09;50.92;100421.56;5017431;28;45537;-60
2022/10/15 15:06:16;;;;;;;;;0.00;0.00;;;;;21.09;51.16;100421.56;5020742;28;46483;-60
2022/10/15 15:08:42;;;;;;;;;0.00;0.00;;;;;21.08;51.17;100433.03;5020182;28;45264;-60
2022/10/15 15:11:12;;;;;;;;;0.00;0.00;;;;;21.08;51.18;100431.22;5020038;28;49567;-60
2022/10/15 15:13:42;;;;;;;;;0.25;0.25;;;;;21.07;51.28;100434.81;5022198;28;45377;-61
2022/10/15 15:16:10;;;;;;;;;1.00;1.00;;;;;21.07;51.09;100445.34;5043444;28;46723;-61
2022/10/15 15:18:36;;;;;;;;;0.75;0.75;;;;;21.07;50.96;100439.25;5041251;28;46261;-61
2022/10/15 15:21:05;;;;;;;;;0.00;0.00;;;;;21.08;50.93;100438.31;5041436;28;45388;-61
2022/10/15 15:23:31;;;;;;;;;0.25;0.25;;;;;21.08;50.91;100435.66;5025729;28;45352;-60
2022/10/15 15:25:57;;;;;;;;;0.00;0.00;;;;;21.08;51.17;100440.94;5034568;28;45267;-60
2022/10/15 15:28:25;;;;;;;;;0.00;0.00;;;;;21.08;50.78;100440.94;5025217;28;45271;-60
2022/10/15 15:30:56;;;;;;;;;0.00;0.00;;;;;21.07;51.09;100444.50;5039913;28;44757;-60
2022/10/15 15:33:22;;;;;;;;;0.00;0.00;;;;;21.07;50.79;100455.06;5021805;28;45394;-61
2022/10/15 15:35:51;;;;;;;;;0.00;0.00;;;;;21.08;50.71;100456.75;5018762;28;47005;-61
2022/10/15 15:38:18;;;;;;;;;0.00;0.00;;;;;21.07;50.78;100447.97;5018239;28;45643;-62
2022/10/15 15:40:44;;;;;;;;;0.00;0.00;;;;;21.07;51.00;100447.97;5018288;28;45276;-61
2022/10/15 15:43:16;;;;;;;;;0.00;0.00;;;;;21.08;50.84;100449.69;5018009;28;45567;-61
2022/10/15 15:45:42;;;;;;;;;0.00;0.00;;;;;21.07;50.71;100439.25;5018295;28;46198;-61
2022/10/15 15:48:07;;;;;;;;;0.00;0.00;;;;;21.08;50.70;100443.56;5016478;28;45481;-65
2022/10/15 15:50:34;;;;;;;;;0.00;0.00;;;;;21.08;50.98;100449.69;5018325;28;45357;-60
2022/10/15 15:53:00;;;;;;;;;0.00;0.00;;;;;21.08;50.97;100446.22;5018890;28;45194;-64
2022/10/15 15:55:25;;;;;;;;;0.00;0.00;;;;;21.07;51.11;100452.41;5022413;28;46610;-64
2022/10/15 15:57:50;;;;;;;;;0.25;0.25;;;;;21.06;50.60;100442.81;5034083;28;45302;-64
2022/10/15 16:00:16;;;;;;;;;1.00;0.00;;;;;21.06;50.40;100448.09;5027281;28;45436;-65
2022/10/15 16:02:42;;;;;;;;;0.00;0.00;;;;;21.06;51.20;100456.00;5020176;28;45633;-60
2022/10/15 16:05:09;;;;;;;;;0.00;0.00;;;;;21.05;50.35;100456.94;5018138;28;47314;-61
2022/10/15 16:07:35;;;;;;;;;0.00;0.00;;;;;21.04;50.93;100458.75;5018269;28;45371;-60
2022/10/15 16:10:00;;;;;;;;;0.25;0.25;;;;;21.05;50.62;100456.94;5017888;28;45395;-60
2022/10/15 16:12:25;;;;;;;;;0.00;0.00;;;;;21.02;50.85;100444.81;5042827;28;45588;-61
2022/10/15 16:14:51;;;;;;;;;0.00;0.00;;;;;21.04;50.48;100445.56;5027652;28;45364;-61
2022/10/15 16:17:17;;;;;;;;;0.00;0.00;;;;;21.03;50.55;100440.38;5016003;28;45523;-61
2022/10/15 16:19:42;;;;;;;;;2.00;1.25;;;;;21.03;50.64;100441.22;5017537;28;45489;-60
2022/10/15 16:22:08;;;;;;;;;1.00;1.00;;;;;21.03;50.78;100453.53;5017458;28;45581;-60
2022/10/15 16:24:34;;;;;;;;;2.00;2.00;;;;;21.00;50.89;100442.25;5017126;28;46108;-61
2022/10/15 16:27:00;;;;;;;;;4.00;1.00;;;;;21.01;50.83;100446.59;5015902;28;45804;-60
2022/10/15 16:29:25;;;;;;;;;0.75;0.00;;;;;21.01;50.81;100446.59;5017404;28;45355;-61
2022/10/15 16:31:50;;;;;;;;;1.00;1.00;;;;;21.00;50.28;100450.16;5017728;28;45256;-61
2022/10/15 16:34:16;;;;;;;;;2.25;2.00;;;;;20.98;50.52;100452.06;5016746;28;46199;-60
2022/10/15 16:36:41;;;;;;;;;2.67;2.00;;;;;21.00;50.60;100451.97;5016490;28;59419;-61
2022/10/15 16:39:06;;;;;;;;;2.00;2.00;;;;;21.00;50.37;100442.25;5015292;28;59135;-61
2022/10/15 16:41:31;;;;;;;;;2.00;2.00;;;;;20.99;50.67;100437.94;5016084;28;45340;-62
2022/10/15 16:43:57;;;;;;;;;3.50;2.75;;;;;20.99;50.49;100443.22;5016390;28;59934;-60
2022/10/15 16:46:22;;;;;;;;;3.00;3.00;;;;;20.96;50.42;100448.69;5016673;28;55818;-63
2022/10/15 16:48:53;;;;;;;;;3.00;3.00;;;;;20.97;50.31;100460.91;5017032;28;45163;-64
2022/10/15 16:51:18;;;;;;;;;6.00;4.00;;;;;20.98;50.58;100459.97;5016957;28;45267;-64
2022/10/15 16:53:45;;;;;;;;;3.75;3.00;;;;;20.96;50.60;100461.84;5015466;28;45874;-64
2022/10/15 16:56:14;;;;;;;;;5.00;3.00;;;;;20.97;50.40;100460.91;5016684;28;45917;-64
2022/10/15 16:58:40;;;;;;;;;3.00;3.00;;;;;20.97;50.44;100463.53;5032937;28;45327;-61
2022/10/15 17:01:09;;;;;;;;;2.75;2.75;;;;;20.98;50.79;100462.59;5033307;28;45418;-60
2022/10/15 17:03:36;;;;;;;;;5.50;3.25;;;;;20.96;50.47;100468.88;5020309;28;45270;-62
2022/10/15 17:06:11;;;;;;;;;4.50;4.50;;;;;20.96;50.19;100467.13;5018585;28;45676;-62
2022/10/15 17:08:44;;;;;;;;;4.75;4.25;;;;;20.96;50.40;100469.75;5024447;28;45355;-61
2022/10/15 17:11:13;;;;;;;;;4.00;4.00;;;;;20.97;50.42;100484.63;5027352;28;45410;-60
2022/10/15 17:13:39;;;;;;;;;5.00;5.00;;;;;20.96;50.22;100485.56;5036904;28;46389;-62
2022/10/15 17:16:12;;;;;;;;;5.00;5.00;;;;;20.97;50.40;100500.44;5023724;28;45180;-61
2022/10/15 17:18:38;;;;;;;;;6.00;5.00;;;;;20.97;50.43;100496.94;5025134;28;45394;-61
2022/10/15 17:21:04;;;;;;;;;6.50;4.50;;;;;20.95;50.33;100494.41;5021853;28;45474;-60
2022/10/15 17:23:30;;;;;;;;;5.00;5.00;;;;;20.95;50.26;100507.56;5020909;28;46930;-62
2022/10/15 17:25:55;;;;;;;;;6.00;5.00;;;;;20.95;50.06;100512.84;5041926;28;45528;-61
2022/10/15 17:28:20;;;;;;;;;4.50;4.50;;;;;20.97;50.43;100518.00;5039445;28;45350;-61
2022/10/15 17:30:46;;;;;;;;;6.25;5.25;;;;;20.96;50.42;100511.91;5026228;28;45649;-60
2022/10/15 17:33:11;;;;;;;;;6.00;5.25;;;;;20.96;50.32;100506.63;5016608;28;46267;-61
2022/10/15 17:35:36;;;;;;;;;4.50;4.50;;;;;20.94;50.42;100497.97;5015191;28;54875;-63
2022/10/15 17:38:03;;;;;;;;;3.75;3.75;;;;;20.95;50.28;100510.22;5016168;28;45237;-60
2022/10/15 17:40:29;;;;;;;;;5.25;5.25;;;;;20.93;50.20;100516.53;5016476;28;45406;-61
2022/10/15 17:42:54;;;;;;;;;5.50;5.50;;;;;20.96;50.18;100524.22;5016555;28;46488;-61
2022/10/15 17:45:22;;;;;;;;;5.00;5.00;;;;;20.95;50.45;100533.94;5015694;28;45348;-61
2022/10/15 17:47:48;;;;;;;;;4.25;4.25;;;;;20.95;50.29;100531.28;5016209;28;45322;-64
2022/10/15 17:50:13;;;;;;;;;6.00;6.00;;;;;20.95;50.09;100533.94;5015680;28;45233;-60
2022/10/15 17:52:40;;;;;;;;;5.75;4.75;;;;;20.95;50.28;100523.38;5016091;28;47214;-61
2022/10/15 17:55:06;;;;;;;;;6.00;6.00;;;;;20.93;50.14;100517.34;5017775;28;45991;-61
2022/10/15 17:57:31;;;;;;;;;6.00;6.00;;;;;20.93;50.42;100520.00;5034424;28;45291;-61
2022/10/15 17:59:57;;;;;;;;;6.75;4.00;;;;;20.94;49.86;100520.84;5023886;28;45363;-64
2022/10/15 18:02:22;;;;;;;;;4.00;4.00;;;;;20.94;50.26;100537.50;5016130;28;63615;-64
2022/10/15 18:04:47;;;;;;;;;5.00;5.00;;;;;20.94;50.06;100532.22;5017007;28;45806;-64
2022/10/15 18:07:17;;;;;;;;;6.50;5.75;;;;;20.95;50.31;100535.69;5028691;28;45702;-63
2022/10/15 18:09:42;;;;;;;;;3.50;3.50;;;;;20.94;49.87;100539.31;5035837;28;44881;-61
2022/10/15 18:12:08;;;;;;;;;6.00;4.25;;;;;20.94;49.94;100539.31;5017299;28;48313;-60
2022/10/15 18:14:34;;;;;;;;;5.00;4.00;;;;;20.93;50.01;100541.06;5014773;28;45328;-61
2022/10/15 18:16:59;;;;;;;;;4.00;4.00;;;;;20.94;49.86;100545.41;5015774;28;45272;-60
2022/10/15 18:19:25;;;;;;;;;4.75;4.25;;;;;20.94;50.34;100545.41;5015962;28;45449;-61
2022/10/15 18:21:50;;;;;;;;;5.00;5.00;;;;;20.92;50.21;100547.28;5015516;28;46156;-61
2022/10/15 18:24:20;;;;;;;;;4.25;4.00;;;;;20.93;49.96;100542.88;5015321;28;45611;-61
2022/10/15 18:26:45;;;;;;;;;5.75;5.25;;;;;20.92;49.97;100542.00;5015484;28;45390;-61
2022/10/15 18:29:10;;;;;;;;;4.50;4.50;;;;;20.91;49.86;100542.94;5015463;28;45304;-61
2022/10/15 18:31:36;;;;;;;;;3.50;3.50;;;;;20.92;50.12;100552.53;5015280;28;47542;-60
2022/10/15 18:34:01;;;;;;;;;5.00;5.00;;;;;20.93;49.81;100551.59;5014928;28;54193;-60
2022/10/15 18:36:29;;;;;;;;;4.00;4.00;;;;;20.94;49.76;100561.22;5015866;28;45746;-61
2022/10/15 18:38:55;;;;;;;;;7.00;6.00;;;;;20.93;49.72;100559.50;5016339;28;45239;-61
2022/10/15 18:41:26;;;;;;;;;6.50;4.50;;;;;20.94;49.99;100558.56;5016939;28;47101;-61
2022/10/15 18:43:54;;;;;;;;;2.00;2.00;;;;;20.92;49.73;100543.81;5017381;28;45400;-61
2022/10/15 18:46:20;;;;;;;;;5.00;5.00;;;;;20.94;49.71;100534.03;5019504;28;45719;-61
2022/10/15 18:48:46;;;;;;;;;6.00;5.00;;;;;20.92;50.14;100538.53;5016727;28;45406;-64
2022/10/15 18:51:12;;;;;;;;;5.00;5.00;;;;;20.93;50.14;100546.34;5015027;28;46069;-60
2022/10/15 18:53:38;;;;;;;;;5.00;4.00;;;;;20.93;49.75;100558.69;5015122;28;45280;-60
2022/10/15 18:56:05;;;;;;;;;5.25;5.00;;;;;20.94;49.61;100552.47;5014983;28;45402;-61
2022/10/15 18:58:30;;;;;;;;;5.50;4.00;;;;;20.92;49.79;100547.28;5015219;28;45328;-61
2022/10/15 19:00:57;;;;;;;;;5.25;4.50;;;;;20.91;49.94;100550.84;5015028;28;45279;-60
2022/10/15 19:03:23;;;;;;;;;5.00;4.00;;;;;20.93;49.74;100556.88;5018075;28;45372;-62
2022/10/15 19:05:49;;;;;;;;;4.00;4.00;;;;;20.92;50.02;100568.34;5017277;28;45404;-60
2022/10/15 19:08:15;;;;;;;;;4.00;4.00;;;;;20.93;50.01;100575.31;5018554;28;45656;-61
2022/10/15 19:10:40;;;;;;;;;4.50;4.25;;;;;20.94;49.93;100571.75;5018211;28;46250;-61
2022/10/15 19:13:05;;;;;;;;;6.00;4.75;;;;;20.92;49.97;100562.25;5018066;28;45492;-63
2022/10/15 19:15:34;;;;;;;;;5.00;3.33;;;;;20.92;49.94;100547.28;5017960;28;51660;-63
2022/10/15 19:17:59;;;;;;;;;4.00;4.00;;;;;20.92;49.43;100547.28;5018649;28;45414;-64
2022/10/15 19:20:25;;;;;;;;;5.00;5.00;;;;;20.91;49.77;100553.47;5017900;28;55773;-64
2022/10/15 19:22:50;;;;;;;;;4.00;3.00;;;;;20.92;49.97;100555.19;5018246;28;45330;-63
2022/10/15 19:25:16;;;;;;;;;4.25;4.25;;;;;20.92;50.03;100544.63;5018044;28;45404;-63
2022/10/15 19:27:41;;;;;;;;;5.25;5.00;;;;;20.92;49.71;100546.44;5019096;28;45228;-62
2022/10/15 19:30:07;;;;;;;;;2.00;2.00;;;;;20.93;49.70;100550.78;5018301;28;45784;-64
2022/10/15 19:32:32;;;;;;;;;5.00;4.00;;;;;20.92;49.73;100555.19;5031349;28;45182;-60
2022/10/15 19:34:58;;;;;;;;;4.00;4.00;;;;;20.92;50.09;100557.81;5038345;28;45413;-60
2022/10/15 19:37:23;;;;;;;;;4.75;3.75;;;;;20.92;50.07;100559.63;5028637;28;45225;-61
2022/10/15 19:39:48;;;;;;;;;4.00;4.00;;;;;20.92;50.16;100567.53;5040540;28;46666;-60
2022/10/15 19:42:14;;;;;;;;;4.75;4.50;;;;;20.93;50.07;100569.22;5039362;28;45339;-63
2022/10/15 19:44:40;;;;;;;;;4.00;4.00;;;;;20.92;49.63;100576.25;5040901;28;45583;-62
2022/10/15 19:47:05;;;;;;;;;5.25;3.75;;;;;20.92;49.82;100578.88;5032181;28;44809;-64
2022/10/15 19:49:32;;;;;;;;;4.00;3.25;;;;;20.92;49.95;100578.88;5025086;28;45319;-60
2022/10/15 19:51:59;;;;;;;;;4.00;4.00;;;;;20.92;49.76;100589.44;5033765;28;45853;-62
2022/10/15 19:54:25;;;;;;;;;4.00;4.00;;;;;20.92;50.35;100584.16;5024137;28;45292;-62
2022/10/15 19:56:50;;;;;;;;;5.00;5.00;;;;;20.93;50.06;100585.03;5028080;28;45219;-64
2022/10/15 19:59:16;;;;;;;;;5.00;5.00;;;;;20.92;50.13;100583.31;5023780;28;46462;-62
2022/10/15 20:01:41;;;;;;;;;3.75;3.75;;;;;20.90;49.91;100578.13;5033063;28;45201;-61
2022/10/15 20:04:06;;;;;;;;;5.00;5.00;;;;;20.91;49.87;100581.63;5027172;28;45297;-59
2022/10/15 20:06:34;;;;;;;;;3.25;3.25;;;;;20.92;49.89;100584.16;5018637;28;45454;-62
2022/10/15 20:09:00;;;;;;;;;3.00;3.00;;;;;20.92;49.87;100581.53;5017995;28;45386;-61
2022/10/15 20:11:26;;;;;;;;;4.50;3.50;;;;;20.92;49.59;100567.53;5018013;28;45283;-64
2022/10/15 20:13:52;;;;;;;;;4.00;4.00;;;;;20.92;50.08;100571.00;5018338;28;45301;-64
2022/10/15 20:16:18;;;;;;;;;5.00;3.75;;;;;20.92;49.79;100565.72;5020403;28;45272;-63
2022/10/15 20:18:43;;;;;;;;;3.75;2.50;;;;;20.91;49.97;100566.66;5022056;28;45917;-62